McConnell AFB, Kansas
Current Conditions -  °F | °C
As of 9:54 PM on Friday 24 Oct 2014 (Local Time) from KWLD Reporting Station
Clear Clear  
Wind Chill: 65°   Ceiling: Unl
Heat Index: 65°   Visibility: 10mi
Dew Point: 62°   Wind: 6mph
Humidity: 90%   Direction: 170°S
Pressure: 30.04"   Gusts: NA
Location:  37.38°N, 97.15°W
Report Text: KWLD 250254Z AUTO 17005KT 10SM CLR 18/17 A3004 RMK AO2 SLP165 T01830167 51009
Loading
Personal Weather Stations






























Interactive Weather Map
Tropical Storm Tracking
New forecast layout! Learn more

10-Day Weather Forecast

Advertisements
Track Severe Weather on mobile